sensor_id;sensor_type;location;lat;lon;timestamp;P1;durP1;ratioP1;P2;durP2;ratioP2
18473;SDS011;30265;52.408;13.500;2023-07-31T00:02:22;5.88;;;2.50;;
18473;SDS011;30265;52.408;13.500;2023-07-31T00:12:45;4.47;;;2.88;;
18473;SDS011;30265;52.408;13.500;2023-07-31T00:23:07;7.00;;;3.15;;
18473;SDS011;30265;52.408;13.500;2023-07-31T00:33:30;5.50;;;3.00;;
18473;SDS011;30265;52.408;13.500;2023-07-31T00:43:52;6.90;;;2.70;;
18473;SDS011;30265;52.408;13.500;2023-07-31T00:54:15;3.90;;;2.67;;
18473;SDS011;30265;52.408;13.500;2023-07-31T01:04:37;4.55;;;2.60;;
18473;SDS011;30265;52.408;13.500;2023-07-31T01:15:05;5.50;;;3.00;;
18473;SDS011;30265;52.408;13.500;2023-07-31T01:25:43;9.30;;;3.33;;
18473;SDS011;30265;52.408;13.500;2023-07-31T01:36:12;10.45;;;4.07;;
18473;SDS011;30265;52.408;13.500;2023-07-31T01:46:36;13.48;;;3.85;;
18473;SDS011;30265;52.408;13.500;2023-07-31T01:56:58;7.78;;;3.38;;
18473;SDS011;30265;52.408;13.500;2023-07-31T02:07:21;7.82;;;3.55;;
18473;SDS011;30265;52.408;13.500;2023-07-31T02:17:43;9.45;;;3.83;;
18473;SDS011;30265;52.408;13.500;2023-07-31T02:28:07;9.52;;;4.30;;
18473;SDS011;30265;52.408;13.500;2023-07-31T02:38:28;7.22;;;4.38;;
18473;SDS011;30265;52.408;13.500;2023-07-31T02:48:51;7.38;;;4.90;;
18473;SDS011;30265;52.408;13.500;2023-07-31T02:59:13;7.75;;;4.45;;
18473;SDS011;30265;52.408;13.500;2023-07-31T03:09:37;11.25;;;4.85;;
18473;SDS011;30265;52.408;13.500;2023-07-31T03:19:59;10.48;;;5.07;;
18473;SDS011;30265;52.408;13.500;2023-07-31T03:30:23;6.85;;;4.78;;
18473;SDS011;30265;52.408;13.500;2023-07-31T03:40:45;9.90;;;4.95;;
18473;SDS011;30265;52.408;13.500;2023-07-31T03:51:09;14.15;;;4.72;;
18473;SDS011;30265;52.408;13.500;2023-07-31T04:01:31;10.50;;;4.78;;
18473;SDS011;30265;52.408;13.500;2023-07-31T04:11:55;6.75;;;4.18;;
18473;SDS011;30265;52.408;13.500;2023-07-31T04:22:17;11.02;;;5.07;;
18473;SDS011;30265;52.408;13.500;2023-07-31T04:32:41;10.23;;;4.82;;
18473;SDS011;30265;52.408;13.500;2023-07-31T04:43:03;8.63;;;3.92;;
18473;SDS011;30265;52.408;13.500;2023-07-31T04:53:27;7.70;;;3.95;;
18473;SDS011;30265;52.408;13.500;2023-07-31T05:03:48;7.75;;;4.13;;
18473;SDS011;30265;52.408;13.500;2023-07-31T05:14:12;5.50;;;3.45;;
18473;SDS011;30265;52.408;13.500;2023-07-31T05:24:35;9.13;;;3.33;;
18473;SDS011;30265;52.408;13.500;2023-07-31T05:34:58;8.23;;;3.50;;
18473;SDS011;30265;52.408;13.500;2023-07-31T05:45:21;8.43;;;3.65;;
18473;SDS011;30265;52.408;13.500;2023-07-31T05:55:44;6.63;;;3.58;;
18473;SDS011;30265;52.408;13.500;2023-07-31T06:06:05;6.60;;;3.40;;
18473;SDS011;30265;52.408;13.500;2023-07-31T06:16:28;8.15;;;3.10;;
18473;SDS011;30265;52.408;13.500;2023-07-31T06:26:50;10.07;;;2.63;;
18473;SDS011;30265;52.408;13.500;2023-07-31T06:37:13;11.82;;;3.50;;
18473;SDS011;30265;52.408;13.500;2023-07-31T06:47:34;19.25;;;5.00;;
18473;SDS011;30265;52.408;13.500;2023-07-31T06:57:58;5.90;;;2.70;;
18473;SDS011;30265;52.408;13.500;2023-07-31T07:08:19;10.05;;;3.28;;
18473;SDS011;30265;52.408;13.500;2023-07-31T07:18:42;6.72;;;3.35;;
18473;SDS011;30265;52.408;13.500;2023-07-31T07:29:22;8.27;;;3.95;;
18473;SDS011;30265;52.408;13.500;2023-07-31T07:39:45;10.32;;;4.13;;
18473;SDS011;30265;52.408;13.500;2023-07-31T07:50:07;11.35;;;3.70;;
18473;SDS011;30265;52.408;13.500;2023-07-31T08:00:31;6.90;;;3.38;;
18473;SDS011;30265;52.408;13.500;2023-07-31T08:10:53;5.25;;;2.72;;
18473;SDS011;30265;52.408;13.500;2023-07-31T08:21:18;4.10;;;2.22;;
18473;SDS011;30265;52.408;13.500;2023-07-31T08:31:40;7.68;;;3.65;;
18473;SDS011;30265;52.408;13.500;2023-07-31T08:42:03;6.35;;;3.33;;
18473;SDS011;30265;52.408;13.500;2023-07-31T08:52:26;8.85;;;3.25;;
18473;SDS011;30265;52.408;13.500;2023-07-31T09:02:51;5.15;;;2.78;;
18473;SDS011;30265;52.408;13.500;2023-07-31T09:13:17;3.80;;;2.35;;
18473;SDS011;30265;52.408;13.500;2023-07-31T09:23:44;5.05;;;2.10;;
18473;SDS011;30265;52.408;13.500;2023-07-31T09:34:07;2.42;;;1.40;;
18473;SDS011;30265;52.408;13.500;2023-07-31T09:44:39;1.63;;;1.30;;
18473;SDS011;30265;52.408;13.500;2023-07-31T09:55:02;3.92;;;1.95;;
18473;SDS011;30265;52.408;13.500;2023-07-31T10:05:26;6.15;;;2.60;;
18473;SDS011;30265;52.408;13.500;2023-07-31T10:15:52;4.97;;;2.63;;
18473;SDS011;30265;52.408;13.500;2023-07-31T10:26:16;5.75;;;3.10;;
18473;SDS011;30265;52.408;13.500;2023-07-31T10:36:39;5.37;;;3.07;;
18473;SDS011;30265;52.408;13.500;2023-07-31T10:47:02;9.18;;;3.72;;
18473;SDS011;30265;52.408;13.500;2023-07-31T10:57:24;11.23;;;3.80;;
18473;SDS011;30265;52.408;13.500;2023-07-31T11:07:48;11.20;;;3.75;;
18473;SDS011;30265;52.408;13.500;2023-07-31T11:18:10;7.53;;;3.20;;
18473;SDS011;30265;52.408;13.500;2023-07-31T11:28:34;4.68;;;2.40;;
18473;SDS011;30265;52.408;13.500;2023-07-31T11:39:03;4.28;;;2.15;;
18473;SDS011;30265;52.408;13.500;2023-07-31T11:49:27;6.75;;;2.42;;
18473;SDS011;30265;52.408;13.500;2023-07-31T11:59:48;20.27;;;2.80;;
18473;SDS011;30265;52.408;13.500;2023-07-31T12:10:12;10.10;;;2.67;;
18473;SDS011;30265;52.408;13.500;2023-07-31T12:20:44;4.33;;;2.70;;
18473;SDS011;30265;52.408;13.500;2023-07-31T12:31:08;4.80;;;2.83;;
18473;SDS011;30265;52.408;13.500;2023-07-31T12:41:31;8.00;;;2.10;;
18473;SDS011;30265;52.408;13.500;2023-07-31T12:51:54;6.90;;;2.13;;
18473;SDS011;30265;52.408;13.500;2023-07-31T13:02:16;5.03;;;2.40;;
18473;SDS011;30265;52.408;13.500;2023-07-31T13:12:42;5.20;;;2.65;;
18473;SDS011;30265;52.408;13.500;2023-07-31T13:23:04;6.10;;;2.77;;
18473;SDS011;30265;52.408;13.500;2023-07-31T13:33:27;6.75;;;3.00;;
18473;SDS011;30265;52.408;13.500;2023-07-31T13:43:57;8.82;;;2.88;;
18473;SDS011;30265;52.408;13.500;2023-07-31T13:54:20;5.60;;;2.60;;
18473;SDS011;30265;52.408;13.500;2023-07-31T14:04:43;4.57;;;2.80;;
18473;SDS011;30265;52.408;13.500;2023-07-31T14:15:06;7.25;;;2.90;;
18473;SDS011;30265;52.408;13.500;2023-07-31T14:25:28;11.70;;;2.67;;
18473;SDS011;30265;52.408;13.500;2023-07-31T14:35:51;6.93;;;2.88;;
18473;SDS011;30265;52.408;13.500;2023-07-31T14:46:14;6.15;;;2.42;;
18473;SDS011;30265;52.408;13.500;2023-07-31T14:56:37;5.60;;;2.60;;
18473;SDS011;30265;52.408;13.500;2023-07-31T15:06:59;9.68;;;2.90;;
18473;SDS011;30265;52.408;13.500;2023-07-31T15:17:22;5.70;;;2.92;;
18473;SDS011;30265;52.408;13.500;2023-07-31T15:27:44;5.18;;;2.63;;
18473;SDS011;30265;52.408;13.500;2023-07-31T15:38:07;5.93;;;2.50;;
18473;SDS011;30265;52.408;13.500;2023-07-31T15:48:29;6.00;;;2.72;;
18473;SDS011;30265;52.408;13.500;2023-07-31T15:58:52;6.22;;;2.90;;
18473;SDS011;30265;52.408;13.500;2023-07-31T16:09:16;6.90;;;3.33;;
18473;SDS011;30265;52.408;13.500;2023-07-31T16:19:39;6.00;;;2.47;;
18473;SDS011;30265;52.408;13.500;2023-07-31T16:30:01;7.20;;;2.35;;
18473;SDS011;30265;52.408;13.500;2023-07-31T16:40:25;5.28;;;2.75;;
18473;SDS011;30265;52.408;13.500;2023-07-31T16:50:47;6.40;;;2.75;;
18473;SDS011;30265;52.408;13.500;2023-07-31T17:01:12;6.00;;;2.30;;
18473;SDS011;30265;52.408;13.500;2023-07-31T17:11:34;8.77;;;2.40;;
18473;SDS011;30265;52.408;13.500;2023-07-31T17:21:57;5.30;;;2.03;;
18473;SDS011;30265;52.408;13.500;2023-07-31T17:32:19;3.92;;;1.90;;
18473;SDS011;30265;52.408;13.500;2023-07-31T17:42:45;6.80;;;2.13;;
18473;SDS011;30265;52.408;13.500;2023-07-31T17:53:06;4.75;;;2.15;;
18473;SDS011;30265;52.408;13.500;2023-07-31T18:03:30;7.88;;;3.70;;
18473;SDS011;30265;52.408;13.500;2023-07-31T18:14:01;4.50;;;2.20;;
18473;SDS011;30265;52.408;13.500;2023-07-31T18:24:26;5.70;;;2.17;;
18473;SDS011;30265;52.408;13.500;2023-07-31T18:34:48;6.43;;;2.75;;
18473;SDS011;30265;52.408;13.500;2023-07-31T18:45:11;4.57;;;2.20;;
18473;SDS011;30265;52.408;13.500;2023-07-31T18:55:33;5.68;;;2.80;;
18473;SDS011;30265;52.408;13.500;2023-07-31T19:06:01;7.18;;;2.90;;
18473;SDS011;30265;52.408;13.500;2023-07-31T19:16:23;7.78;;;2.78;;
18473;SDS011;30265;52.408;13.500;2023-07-31T19:26:46;5.38;;;2.50;;
18473;SDS011;30265;52.408;13.500;2023-07-31T19:37:07;11.80;;;4.80;;
18473;SDS011;30265;52.408;13.500;2023-07-31T19:47:32;10.93;;;3.45;;
18473;SDS011;30265;52.408;13.500;2023-07-31T19:57:54;7.57;;;4.28;;
18473;SDS011;30265;52.408;13.500;2023-07-31T20:08:17;10.40;;;4.38;;
18473;SDS011;30265;52.408;13.500;2023-07-31T20:18:39;6.63;;;3.58;;
18473;SDS011;30265;52.408;13.500;2023-07-31T20:29:05;11.00;;;4.07;;
18473;SDS011;30265;52.408;13.500;2023-07-31T20:39:28;11.55;;;3.58;;
18473;SDS011;30265;52.408;13.500;2023-07-31T20:49:51;8.98;;;3.78;;
18473;SDS011;30265;52.408;13.500;2023-07-31T21:00:12;7.40;;;3.80;;
18473;SDS011;30265;52.408;13.500;2023-07-31T21:10:39;8.88;;;3.83;;
18473;SDS011;30265;52.408;13.500;2023-07-31T21:21:00;8.27;;;3.70;;
18473;SDS011;30265;52.408;13.500;2023-07-31T21:31:23;7.18;;;3.28;;
18473;SDS011;30265;52.408;13.500;2023-07-31T21:41:45;9.13;;;3.90;;
18473;SDS011;30265;52.408;13.500;2023-07-31T21:52:08;7.50;;;4.03;;
18473;SDS011;30265;52.408;13.500;2023-07-31T22:02:30;8.68;;;4.03;;
18473;SDS011;30265;52.408;13.500;2023-07-31T22:12:53;9.20;;;4.22;;
18473;SDS011;30265;52.408;13.500;2023-07-31T22:23:14;9.15;;;3.70;;
18473;SDS011;30265;52.408;13.500;2023-07-31T22:33:37;9.32;;;3.40;;
18473;SDS011;30265;52.408;13.500;2023-07-31T22:43:59;9.98;;;3.80;;
18473;SDS011;30265;52.408;13.500;2023-07-31T22:54:22;10.63;;;4.20;;
18473;SDS011;30265;52.408;13.500;2023-07-31T23:04:43;9.75;;;4.15;;
18473;SDS011;30265;52.408;13.500;2023-07-31T23:15:07;9.32;;;3.67;;
18473;SDS011;30265;52.408;13.500;2023-07-31T23:25:33;10.13;;;4.30;;
18473;SDS011;30265;52.408;13.500;2023-07-31T23:35:57;10.57;;;3.42;;
18473;SDS011;30265;52.408;13.500;2023-07-31T23:46:18;8.43;;;4.03;;
18473;SDS011;30265;52.408;13.500;2023-07-31T23:56:41;10.07;;;4.20;;
